Quechee, Vermont
Current Conditions -  °F | °C
As of 12:53 AM on Sunday 26 Oct 2014 (Local Time) from KLEB Reporting Station
Few Clouds Few Clouds  
Wind Chill: 45°   Ceiling: Unl
Heat Index: 47°   Visibility: 10mi
Dew Point: 42°   Wind: 5mph
Humidity: 83%   Direction: NA
Pressure: 29.45"   Gusts: NA
Location:  43.65°N, 72.42°W
Report Text: KLEB 260453Z AUTO VRB04KT 10SM FEW070 08/06 A2945 RMK AO2 SLP971 T00830056 401720006
Loading
Personal Weather Stations






























Interactive Weather Map
Tropical Storm Tracking
New forecast layout! Learn more

10-Day Weather Forecast

Advertisements
Track Severe Weather on mobile